Time,TemperatureF,DewpointF,PressureIn,WindDirection,WindDirectionDegrees,WindSpeedMPH,WindSpeedGustMPH,Humidity,HourlyPrecipIn,Conditions,Clouds,dailyrainin,SolarRadiationWatts/m^2,SoftwareType,DateUTC
2013-09-22 00:02:00,60.6,55.7,29.90,ESE,123,2.3,2.3,84,0.00,CLR,,0.00,0.0,WeatherDisplay:10.37,2013-09-22 05:02:00,
2013-09-22 00:07:00,60.4,55.9,29.90,SE,143,0.0,0.0,85,0.00,CLR,,0.00,0.0,WeatherDisplay:10.37,2013-09-22 05:07:00,
2013-09-22 00:12:00,60.3,55.8,29.90,SE,143,0.0,0.0,85,0.00,CLR,,0.00,0.0,WeatherDisplay:10.37,2013-09-22 05:12:00,
2013-09-22 00:17:00,60.1,55.6,29.90,SE,143,0.0,0.0,85,0.00,CLR,,0.00,0.0,WeatherDisplay:10.37,2013-09-22 05:17:00,
2013-09-22 00:22:00,60.0,55.5,29.90,SE,130,0.0,0.0,85,0.00,CLR,,0.00,0.0,WeatherDisplay:10.37,2013-09-22 05:22:00,
2013-09-22 00:27:00,59.9,55.7,29.90,SSE,148,0.0,0.0,86,0.00,CLR,,0.00,0.0,WeatherDisplay:10.37,2013-09-22 05:27:00,
2013-09-22 00:32:00,59.8,55.6,29.89,SSE,148,0.0,0.1,86,0.00,CLR,,0.00,0.0,WeatherDisplay:10.37,2013-09-22 05:32:00,
2013-09-22 00:37:00,59.6,55.4,29.89,SSE,152,3.5,3.5,86,0.00,CLR,,0.00,0.0,WeatherDisplay:10.37,2013-09-22 05:37:00,
2013-09-22 00:42:00,59.5,55.3,29.89,SSE,151,1.0,0.0,86,0.00,CLR,,0.00,0.0,WeatherDisplay:10.37,2013-09-22 05:42:00,
2013-09-22 00:47:00,59.4,55.5,29.90,SSE,151,1.2,1.2,87,0.00,CLR,,0.00,0.0,WeatherDisplay:10.37,2013-09-22 05:47:00,
2013-09-22 00:52:00,59.2,55.3,29.90,SSE,148,3.5,3.5,87,0.00,CLR,,0.00,0.0,WeatherDisplay:10.37,2013-09-22 05:52:00,
2013-09-22 00:57:00,59.1,55.2,29.89,SE,144,0.0,0.0,87,0.00,CLR,,0.00,0.0,WeatherDisplay:10.37,2013-09-22 05:57:00,
2013-09-22 01:02:00,58.9,55.4,29.89,SE,144,0.0,0.0,88,0.00,CLR,,0.00,0.0,WeatherDisplay:10.37,2013-09-22 06:02:00,
2013-09-22 01:07:00,58.7,55.2,29.89,SE,144,0.0,0.0,88,0.00,CLR,,0.00,0.0,WeatherDisplay:10.37,2013-09-22 06:07:00,
2013-09-22 01:12:00,58.6,55.1,29.89,SE,144,0.0,0.0,88,0.00,CLR,,0.00,0.0,WeatherDisplay:10.37,2013-09-22 06:12:00,
2013-09-22 01:17:00,58.5,55.0,29.89,SE,144,1.2,0.0,88,0.00,CLR,,0.00,0.0,WeatherDisplay:10.37,2013-09-22 06:17:00,
2013-09-22 01:22:00,58.3,55.1,29.89,SE,144,0.0,0.0,89,0.00,CLR,,0.00,0.0,WeatherDisplay:10.37,2013-09-22 06:22:00,
2013-09-22 01:27:00,58.2,55.3,29.89,SE,144,1.2,1.2,90,0.00,CLR,,0.00,0.0,WeatherDisplay:10.37,2013-09-22 06:27:00,
2013-09-22 01:32:00,58.1,55.2,29.89,SE,144,0.0,0.0,90,0.00,CLR,,0.00,0.0,WeatherDisplay:10.37,2013-09-22 06:32:00,
2013-09-22 01:37:00,58.0,55.1,29.89,SE,144,1.2,1.2,90,0.00,CLR,,0.00,0.0,WeatherDisplay:10.37,2013-09-22 06:37:00,
2013-09-22 01:42:00,57.9,55.0,29.89,SE,144,0.0,0.0,90,0.00,CLR,,0.00,0.0,WeatherDisplay:10.37,2013-09-22 06:42:00,
2013-09-22 01:47:00,57.8,54.9,29.89,SE,144,0.0,0.0,90,0.00,CLR,,0.00,0.0,WeatherDisplay:10.37,2013-09-22 06:47:00,
2013-09-22 01:52:00,57.7,54.8,29.89,SE,137,0.0,0.0,90,0.00,CLR,,0.00,0.0,WeatherDisplay:10.37,2013-09-22 06:52:00,
2013-09-22 01:57:00,57.7,54.8,29.89,SE,144,0.0,0.0,90,0.00,CLR,,0.00,0.0,WeatherDisplay:10.37,2013-09-22 06:57:00,
2013-09-22 02:02:00,57.6,54.7,29.89,SE,144,2.3,0.0,90,0.00,CLR,,0.00,0.0,WeatherDisplay:10.37,2013-09-22 07:02:00,
2013-09-22 02:07:00,57.5,54.9,29.89,South,178,3.5,3.5,91,0.00,CLR,,0.00,0.0,WeatherDisplay:10.37,2013-09-22 07:07:00,
2013-09-22 02:12:00,57.4,54.8,29.89,South,178,1.2,0.0,91,0.00,CLR,,0.00,0.0,WeatherDisplay:10.37,2013-09-22 07:12:00,
2013-09-22 02:17:00,57.3,54.7,29.89,South,178,1.0,1.0,91,0.00,CLR,,0.00,0.0,WeatherDisplay:10.37,2013-09-22 07:17:00,
2013-09-22 02:22:00,57.2,54.6,29.89,South,178,0.0,0.0,91,0.00,CLR,,0.00,0.0,WeatherDisplay:10.37,2013-09-22 07:22:00,
2013-09-22 02:27:00,57.2,54.6,29.89,South,178,0.0,0.0,91,0.00,CLR,,0.00,0.0,WeatherDisplay:10.37,2013-09-22 07:27:00,
2013-09-22 02:32:00,57.0,54.4,29.89,South,178,0.0,0.0,91,0.00,CLR,,0.00,0.0,WeatherDisplay:10.37,2013-09-22 07:32:00,
2013-09-22 02:37:00,57.0,54.4,29.89,South,178,0.0,0.0,91,0.00,CLR,,0.00,0.0,WeatherDisplay:10.37,2013-09-22 07:37:00,
2013-09-22 02:42:00,56.9,54.3,29.89,South,173,1.2,1.2,91,0.00,CLR,,0.00,0.0,WeatherDisplay:10.37,2013-09-22 07:42:00,
2013-09-22 02:47:00,56.8,54.5,29.89,South,173,1.0,0.0,92,0.00,CLR,,0.00,0.0,WeatherDisplay:10.37,2013-09-22 07:47:00,
2013-09-22 02:52:00,56.7,54.4,29.88,South,173,1.2,1.2,92,0.00,CLR,,0.00,0.0,WeatherDisplay:10.37,2013-09-22 07:52:00,
2013-09-22 02:57:00,56.6,54.3,29.88,SSE,161,1.2,0.0,92,0.00,CLR,,0.00,0.0,WeatherDisplay:10.37,2013-09-22 07:57:00,
2013-09-22 03:02:00,56.4,54.1,29.88,South,184,0.0,0.1,92,0.00,CLR,,0.00,0.0,WeatherDisplay:10.37,2013-09-22 08:02:00,
2013-09-22 03:07:00,56.3,54.0,29.88,South,183,2.3,0.0,92,0.00,CLR,,0.00,0.0,WeatherDisplay:10.37,2013-09-22 08:07:00,
2013-09-22 03:12:00,56.2,53.9,29.88,South,183,0.0,0.0,92,0.00,CLR,,0.00,0.0,WeatherDisplay:10.37,2013-09-22 08:12:00,
2013-09-22 03:17:00,56.1,53.8,29.88,South,183,0.0,0.0,92,0.00,CLR,,0.00,0.0,WeatherDisplay:10.37,2013-09-22 08:17:00,
2013-09-22 03:22:00,56.0,54.0,29.88,South,183,0.0,0.0,93,0.00,CLR,,0.00,0.0,WeatherDisplay:10.37,2013-09-22 08:22:00,
2013-09-22 03:27:00,55.8,53.8,29.87,South,183,0.0,0.0,93,0.00,CLR,,0.00,0.0,WeatherDisplay:10.37,2013-09-22 08:27:00,
2013-09-22 03:32:00,55.7,53.7,29.87,South,183,0.0,0.0,93,0.00,CLR,,0.00,0.0,WeatherDisplay:10.37,2013-09-22 08:32:00,
2013-09-22 03:37:00,55.5,53.5,29.88,South,183,0.0,0.0,93,0.00,CLR,,0.00,0.0,WeatherDisplay:10.37,2013-09-22 08:37:00,
2013-09-22 03:42:00,55.4,53.4,29.88,South,183,0.0,0.0,93,0.00,CLR,,0.00,0.0,WeatherDisplay:10.37,2013-09-22 08:42:00,
2013-09-22 03:47:00,55.2,53.2,29.88,South,183,0.0,0.0,93,0.00,CLR,,0.00,0.0,WeatherDisplay:10.37,2013-09-22 08:47:00,
2013-09-22 03:52:00,55.1,53.1,29.88,South,184,0.0,0.0,93,0.00,CLR,,0.00,0.0,WeatherDisplay:10.37,2013-09-22 08:52:00,
2013-09-22 03:57:00,54.9,53.2,29.88,South,184,0.0,0.0,94,0.00,CLR,,0.00,0.0,WeatherDisplay:10.37,2013-09-22 08:57:00,
2013-09-22 04:02:00,54.8,53.1,29.88,South,183,0.0,0.0,94,0.00,CLR,,0.00,0.0,WeatherDisplay:10.37,2013-09-22 09:02:00,
2013-09-22 04:07:00,54.6,52.6,29.88,South,183,0.0,0.0,93,0.00,CLR,,0.00,0.0,WeatherDisplay:10.37,2013-09-22 09:07:00,
2013-09-22 04:12:00,54.5,52.8,29.88,South,183,0.0,0.0,94,0.00,CLR,,0.00,0.0,WeatherDisplay:10.37,2013-09-22 09:12:00,
2013-09-22 04:17:00,54.4,52.7,29.88,South,183,0.0,0.0,94,0.00,CLR,,0.00,0.0,WeatherDisplay:10.37,2013-09-22 09:17:00,
2013-09-22 04:22:00,54.4,53.0,29.87,South,183,0.0,0.0,95,0.00,CLR,,0.00,0.0,WeatherDisplay:10.37,2013-09-22 09:22:00,
2013-09-22 04:27:00,54.3,52.9,29.88,South,183,0.0,0.0,95,0.00,CLR,,0.00,0.0,WeatherDisplay:10.37,2013-09-22 09:27:00,
2013-09-22 04:32:00,54.3,52.9,29.88,South,183,0.0,0.0,95,0.00,CLR,,0.00,0.0,WeatherDisplay:10.37,2013-09-22 09:32:00,
2013-09-22 04:37:00,54.2,52.8,29.88,South,181,2.3,2.3,95,0.00,CLR,,0.00,0.0,WeatherDisplay:10.37,2013-09-22 09:37:00,
2013-09-22 04:42:00,54.2,52.8,29.88,South,182,0.0,0.1,95,0.00,CLR,,0.00,0.0,WeatherDisplay:10.37,2013-09-22 09:42:00,
2013-09-22 04:47:00,54.1,52.7,29.88,South,182,1.2,0.0,95,0.00,CLR,,0.00,0.0,WeatherDisplay:10.37,2013-09-22 09:47:00,
2013-09-22 04:52:00,54.1,52.7,29.88,South,182,0.0,0.0,95,0.00,CLR,,0.00,0.0,WeatherDisplay:10.37,2013-09-22 09:52:00,
2013-09-22 04:57:00,54.0,52.9,29.88,South,182,0.0,0.1,96,0.00,CLR,,0.00,0.0,WeatherDisplay:10.37,2013-09-22 09:57:00,
2013-09-22 05:02:00,54.0,52.9,29.88,South,182,1.2,1.2,96,0.00,CLR,,0.00,0.0,WeatherDisplay:10.37,2013-09-22 10:02:00,
2013-09-22 05:07:00,53.9,52.5,29.88,South,181,0.0,0.0,95,0.00,CLR,,0.00,0.0,WeatherDisplay:10.37,2013-09-22 10:07:00,
2013-09-22 05:12:00,53.8,52.7,29.88,South,181,0.0,0.0,96,0.00,CLR,,0.00,0.0,WeatherDisplay:10.37,2013-09-22 10:12:00,
2013-09-22 05:17:00,53.7,52.6,29.88,South,181,0.0,0.0,96,0.00,CLR,,0.00,0.0,WeatherDisplay:10.37,2013-09-22 10:17:00,
2013-09-22 05:22:00,53.9,52.8,29.87,South,181,0.0,0.1,96,0.00,CLR,,0.00,0.0,WeatherDisplay:10.37,2013-09-22 10:22:00,
2013-09-22 05:27:00,54.0,53.2,29.87,South,181,0.0,0.0,97,0.00,CLR,,0.00,0.0,WeatherDisplay:10.37,2013-09-22 10:27:00,
2013-09-22 05:32:00,54.0,52.9,29.88,SE,141,1.0,1.0,96,0.00,CLR,,0.00,0.0,WeatherDisplay:10.37,2013-09-22 10:32:00,
2013-09-22 05:37:00,54.0,52.9,29.88,SE,141,0.0,0.0,96,0.00,CLR,,0.00,0.0,WeatherDisplay:10.37,2013-09-22 10:37:00,
2013-09-22 05:42:00,53.9,52.8,29.88,SE,141,0.0,0.0,96,0.00,CLR,,0.00,0.0,WeatherDisplay:10.37,2013-09-22 10:42:00,
2013-09-22 05:47:00,53.7,52.6,29.88,SE,141,1.2,1.2,96,0.00,CLR,,0.00,0.0,WeatherDisplay:10.37,2013-09-22 10:47:00,
2013-09-22 05:52:00,53.6,52.5,29.88,SE,141,1.2,0.0,96,0.00,CLR,,0.00,0.0,WeatherDisplay:10.37,2013-09-22 10:52:00,
2013-09-22 05:57:00,53.5,52.4,29.88,SE,141,0.0,0.0,96,0.00,CLR,,0.00,0.0,WeatherDisplay:10.37,2013-09-22 10:57:00,
2013-09-22 06:02:00,53.4,52.3,29.88,SE,141,0.0,0.0,96,0.00,CLR,,0.00,0.0,WeatherDisplay:10.37,2013-09-22 11:02:00,
2013-09-22 06:07:00,53.3,52.2,29.88,SE,141,0.0,0.0,96,0.00,CLR,,0.00,0.0,WeatherDisplay:10.37,2013-09-22 11:07:00,
2013-09-22 06:12:00,53.2,52.1,29.88,SE,141,0.0,0.0,96,0.00,CLR,,0.00,0.0,WeatherDisplay:10.37,2013-09-22 11:12:00,
2013-09-22 06:17:00,53.1,52.0,29.89,SE,141,0.0,0.0,96,0.00,CLR,,0.00,0.0,WeatherDisplay:10.37,2013-09-22 11:17:00,
2013-09-22 06:22:00,52.9,51.8,29.89,SE,141,0.0,0.0,96,0.00,CLR,,0.00,0.0,WeatherDisplay:10.37,2013-09-22 11:22:00,
2013-09-22 06:27:00,52.8,51.7,29.89,SE,141,0.0,0.0,96,0.00,CLR,,0.00,0.0,WeatherDisplay:10.37,2013-09-22 11:27:00,
2013-09-22 06:32:00,52.8,51.7,29.89,SE,141,1.2,0.0,96,0.00,CLR,,0.00,0.0,WeatherDisplay:10.37,2013-09-22 11:32:00,
2013-09-22 06:37:00,52.7,51.6,29.89,SE,141,1.2,0.0,96,0.00,CLR,,0.00,0.0,WeatherDisplay:10.37,2013-09-22 11:37:00,
2013-09-22 06:42:00,52.7,51.9,29.89,SE,141,0.0,0.0,97,0.00,CLR,,0.00,0.0,WeatherDisplay:10.37,2013-09-22 11:42:00,
2013-09-22 06:47:00,52.7,51.9,29.89,SE,141,0.0,0.0,97,0.00,CLR,,0.00,0.0,WeatherDisplay:10.37,2013-09-22 11:47:00,
2013-09-22 06:52:00,52.6,51.8,29.89,SE,141,0.0,0.0,97,0.00,CLR,,0.00,0.0,WeatherDisplay:10.37,2013-09-22 11:52:00,
2013-09-22 06:57:00,52.5,51.7,29.89,SE,141,0.0,0.0,97,0.00,CLR,,0.00,0.0,WeatherDisplay:10.37,2013-09-22 11:57:00,
2013-09-22 07:02:00,52.4,51.6,29.89,SE,141,0.0,0.0,97,0.00,CLR,,0.00,0.0,WeatherDisplay:10.37,2013-09-22 12:02:00,
2013-09-22 07:07:00,52.3,51.5,29.89,SE,141,0.0,0.0,97,0.00,CLR,,0.00,0.0,WeatherDisplay:10.37,2013-09-22 12:07:00,
2013-09-22 07:12:00,52.2,51.4,29.90,SE,141,0.0,0.0,97,0.00,CLR,,0.00,0.0,WeatherDisplay:10.37,2013-09-22 12:12:00,
2013-09-22 07:17:00,52.1,51.3,29.90,SE,141,0.0,0.0,97,0.00,CLR,,0.00,0.0,WeatherDisplay:10.37,2013-09-22 12:17:00,
2013-09-22 07:22:00,52.0,51.2,29.90,SE,141,0.0,0.0,97,0.00,CLR,,0.00,5.0,WeatherDisplay:10.37,2013-09-22 12:22:00,
2013-09-22 07:27:00,51.9,51.1,29.90,SE,141,0.0,0.0,97,0.00,CLR,,0.00,7.0,WeatherDisplay:10.37,2013-09-22 12:27:00,
2013-09-22 07:32:00,51.8,51.0,29.90,SE,141,0.0,0.0,97,0.00,CLR,,0.00,11.0,WeatherDisplay:10.37,2013-09-22 12:32:00,
2013-09-22 07:37:00,51.7,50.9,29.90,SE,141,0.0,0.0,97,0.00,CLR,,0.00,12.0,WeatherDisplay:10.37,2013-09-22 12:37:00,
2013-09-22 07:43:00,51.8,51.0,29.90,SE,141,0.0,0.0,97,0.00,CLR,,0.00,14.0,WeatherDisplay:10.37,2013-09-22 12:43:00,
2013-09-22 07:48:00,51.8,51.0,29.90,SE,141,0.0,0.0,97,0.00,CLR,,0.00,16.0,WeatherDisplay:10.37,2013-09-22 12:48:00,
2013-09-22 07:53:00,51.9,51.4,29.90,SE,141,0.0,0.0,98,0.00,CLR,,0.00,18.0,WeatherDisplay:10.37,2013-09-22 12:53:00,
2013-09-22 07:58:00,52.1,51.6,29.91,SE,141,1.2,0.0,98,0.00,CLR,,0.00,19.0,WeatherDisplay:10.37,2013-09-22 12:58:00,
2013-09-22 08:03:00,52.2,51.7,29.91,SE,141,0.0,0.0,98,0.00,CLR,,0.00,26.0,WeatherDisplay:10.37,2013-09-22 13:03:00,
2013-09-22 08:08:00,52.5,52.0,29.91,SE,141,0.0,0.0,98,0.00,CLR,,0.00,25.0,WeatherDisplay:10.37,2013-09-22 13:08:00,
2013-09-22 08:13:00,52.9,52.4,29.91,SE,141,0.0,0.0,98,0.00,CLR,,0.00,25.0,WeatherDisplay:10.37,2013-09-22 13:13:00,
2013-09-22 08:18:00,53.3,53.0,29.91,SE,142,0.0,0.0,99,0.00,CLR,,0.00,25.0,WeatherDisplay:10.37,2013-09-22 13:18:00,
2013-09-22 08:23:00,53.6,53.3,29.92,South,181,1.2,1.2,99,0.00,CLR,,0.00,54.0,WeatherDisplay:10.37,2013-09-22 13:23:00,
2013-09-22 08:28:00,53.9,53.6,29.91,South,180,2.3,2.3,99,0.00,CLR,,0.00,30.0,WeatherDisplay:10.37,2013-09-22 13:28:00,
2013-09-22 08:33:00,54.4,54.1,29.91,South,180,4.6,4.6,99,0.00,CLR,,0.00,26.0,WeatherDisplay:10.37,2013-09-22 13:33:00,
2013-09-22 08:38:00,54.9,54.6,29.91,SSE,158,5.0,5.0,99,0.00,CLR,,0.00,60.0,WeatherDisplay:10.37,2013-09-22 13:38:00,
2013-09-22 08:43:00,55.3,55.0,29.92,SSE,153,2.3,2.3,99,0.00,CLR,,0.00,142.0,WeatherDisplay:10.37,2013-09-22 13:43:00,
2013-09-22 08:48:00,55.8,55.2,29.92,SE,138,5.8,5.8,98,0.00,CLR,,0.00,28.0,WeatherDisplay:10.37,2013-09-22 13:48:00,
2013-09-22 08:53:00,56.3,55.5,29.92,South,175,2.3,2.3,97,0.00,CLR,,0.00,32.0,WeatherDisplay:10.37,2013-09-22 13:53:00,
2013-09-22 08:58:00,56.8,55.7,29.92,SE,137,3.5,3.5,96,0.00,CLR,,0.00,33.0,WeatherDisplay:10.37,2013-09-22 13:58:00,
2013-09-22 09:03:00,57.2,55.5,29.92,SSE,163,4.6,4.6,94,0.00,CLR,,0.00,35.0,WeatherDisplay:10.37,2013-09-22 14:03:00,
2013-09-22 09:08:00,57.6,55.6,29.92,SSE,155,3.5,3.5,93,0.00,CLR,,0.00,47.0,WeatherDisplay:10.37,2013-09-22 14:08:00,
2013-09-22 09:13:00,58.1,56.1,29.92,South,174,3.5,3.5,93,0.00,CLR,,0.00,33.0,WeatherDisplay:10.37,2013-09-22 14:13:00,
2013-09-22 09:18:00,58.5,55.9,29.92,SSE,158,3.0,3.0,91,0.00,CLR,,0.00,33.0,WeatherDisplay:10.37,2013-09-22 14:18:00,
2013-09-22 09:23:00,58.9,56.0,29.92,SSE,158,6.9,6.9,90,0.00,CLR,,0.00,37.0,WeatherDisplay:10.37,2013-09-22 14:23:00,
2013-09-22 09:28:00,59.4,56.2,29.92,SSE,155,2.3,2.3,89,0.00,CLR,,0.00,53.0,WeatherDisplay:10.37,2013-09-22 14:28:00,
2013-09-22 09:33:00,60.0,56.4,29.92,South,169,7.0,7.0,88,0.00,CLR,,0.00,144.0,WeatherDisplay:10.37,2013-09-22 14:33:00,
2013-09-22 09:38:00,60.5,56.6,29.92,South,170,5.8,5.8,87,0.00,CLR,,0.00,35.0,WeatherDisplay:10.37,2013-09-22 14:38:00,
2013-09-22 09:43:00,61.1,56.2,29.92,SE,144,8.1,8.1,84,0.00,CLR,,0.00,37.0,WeatherDisplay:10.37,2013-09-22 14:43:00,
2013-09-22 09:48:00,61.6,56.4,29.92,SSE,161,5.8,5.8,83,0.00,CLR,,0.00,37.0,WeatherDisplay:10.37,2013-09-22 14:48:00,
2013-09-22 09:53:00,62.2,56.3,29.92,South,189,6.9,6.9,81,0.00,CLR,,0.00,44.0,WeatherDisplay:10.37,2013-09-22 14:53:00,
2013-09-22 09:58:00,62.7,57.1,29.92,South,190,5.8,5.8,82,0.00,CLR,,0.00,46.0,WeatherDisplay:10.37,2013-09-22 14:58:00,
2013-09-22 10:03:00,63.4,57.1,29.92,SE,130,6.9,6.9,80,0.00,CLR,,0.00,42.0,WeatherDisplay:10.37,2013-09-22 15:03:00,
2013-09-22 10:08:00,64.0,56.6,29.92,SE,127,6.9,6.9,77,0.00,CLR,,0.00,63.0,WeatherDisplay:10.37,2013-09-22 15:08:00,
2013-09-22 10:13:00,64.5,56.8,29.92,SSE,150,8.1,8.1,76,0.00,CLR,,0.00,56.0,WeatherDisplay:10.37,2013-09-22 15:13:00,
2013-09-22 10:18:00,64.9,57.2,29.92,SSE,159,9.0,9.0,76,0.00,CLR,,0.00,299.0,WeatherDisplay:10.37,2013-09-22 15:18:00,
2013-09-22 10:23:00,65.5,57.4,29.92,SE,127,5.8,5.8,75,0.00,CLR,,0.00,446.0,WeatherDisplay:10.37,2013-09-22 15:23:00,
2013-09-22 10:28:00,66.1,57.6,29.92,SE,138,6.9,6.9,74,0.00,CLR,,0.00,248.0,WeatherDisplay:10.37,2013-09-22 15:28:00,
2013-09-22 10:33:00,66.7,57.8,29.92,South,172,5.8,5.8,73,0.00,CLR,,0.00,49.0,WeatherDisplay:10.37,2013-09-22 15:33:00,
2013-09-22 10:38:00,67.2,57.1,29.92,East,92,4.6,4.6,70,0.00,CLR,,0.00,132.0,WeatherDisplay:10.37,2013-09-22 15:38:00,
2013-09-22 10:43:00,67.7,58.0,29.92,SE,140,8.1,8.1,71,0.00,CLR,,0.00,134.0,WeatherDisplay:10.37,2013-09-22 15:43:00,
2013-09-22 10:48:00,68.3,57.7,29.92,South,187,10.0,10.0,69,0.00,CLR,,0.00,153.0,WeatherDisplay:10.37,2013-09-22 15:48:00,
2013-09-22 10:53:00,68.7,56.5,29.92,SE,132,10.4,10.4,65,0.00,CLR,,0.00,322.0,WeatherDisplay:10.37,2013-09-22 15:53:00,
2013-09-22 10:58:00,69.0,56.3,29.92,SSE,159,8.1,8.1,64,0.00,CLR,,0.00,123.0,WeatherDisplay:10.37,2013-09-22 15:58:00,
2013-09-22 11:03:00,69.2,56.5,29.91,South,172,5.8,5.8,64,0.00,CLR,,0.00,97.0,WeatherDisplay:10.37,2013-09-22 16:03:00,
2013-09-22 11:08:00,69.4,56.3,29.92,SE,141,11.5,11.5,63,0.00,CLR,,0.00,63.0,WeatherDisplay:10.37,2013-09-22 16:08:00,
2013-09-22 11:13:00,69.7,57.4,29.91,South,177,5.0,5.0,65,0.00,CLR,,0.00,209.0,WeatherDisplay:10.37,2013-09-22 16:13:00,
2013-09-22 11:18:00,69.9,55.8,29.91,South,184,9.2,9.2,61,0.00,CLR,,0.00,134.0,WeatherDisplay:10.37,2013-09-22 16:18:00,
2013-09-22 11:23:00,70.3,56.2,29.91,SSE,164,10.4,10.4,61,0.00,CLR,,0.00,62.0,WeatherDisplay:10.37,2013-09-22 16:23:00,
2013-09-22 11:28:00,70.5,55.9,29.91,SE,146,5.8,5.8,60,0.00,CLR,,0.00,197.0,WeatherDisplay:10.37,2013-09-22 16:28:00,
2013-09-22 11:33:00,70.8,55.8,29.91,SSE,150,3.5,3.5,59,0.00,CLR,,0.00,132.0,WeatherDisplay:10.37,2013-09-22 16:33:00,
2013-09-22 11:38:00,71.1,55.6,29.91,SE,142,10.4,10.4,58,0.00,CLR,,0.00,167.0,WeatherDisplay:10.37,2013-09-22 16:38:00,
2013-09-22 11:43:00,71.4,54.9,29.91,South,184,10.4,10.4,56,0.00,CLR,,0.00,93.0,WeatherDisplay:10.37,2013-09-22 16:43:00,
2013-09-22 11:48:00,71.7,55.7,29.91,SSE,165,7.0,7.0,57,0.00,CLR,,0.00,343.0,WeatherDisplay:10.37,2013-09-22 16:48:00,
2013-09-22 11:53:00,72.0,55.4,29.90,East,99,10.4,10.4,56,0.00,CLR,,0.00,687.0,WeatherDisplay:10.37,2013-09-22 16:53:00,
2013-09-22 11:58:00,72.2,53.6,29.90,SE,141,11.5,11.5,52,0.00,CLR,,0.00,698.0,WeatherDisplay:10.37,2013-09-22 16:58:00,
2013-09-22 12:03:00,72.6,55.5,29.90,South,173,4.6,4.6,55,0.00,CLR,,0.00,710.0,WeatherDisplay:10.37,2013-09-22 17:03:00,
2013-09-22 12:08:00,73.0,54.9,29.90,East,92,9.2,9.2,53,0.00,CLR,,0.00,722.0,WeatherDisplay:10.37,2013-09-22 17:08:00,
2013-09-22 12:13:00,73.4,54.7,29.90,SE,124,9.2,9.2,52,0.00,FEW,,0.00,737.0,WeatherDisplay:10.37,2013-09-22 17:13:00,
2013-09-22 12:19:00,73.8,55.6,29.89,ESE,117,3.5,3.5,53,0.00,FEW,,0.00,747.0,WeatherDisplay:10.37,2013-09-22 17:19:00,
2013-09-22 12:24:00,74.0,55.3,29.89,SSE,163,6.9,6.9,52,0.00,FEW,,0.00,763.0,WeatherDisplay:10.37,2013-09-22 17:24:00,
2013-09-22 12:29:00,74.3,55.5,29.89,SE,137,6.9,6.9,52,0.00,FEW,,0.00,777.0,WeatherDisplay:10.37,2013-09-22 17:29:00,
2013-09-22 12:34:00,74.6,55.3,29.89,SE,140,8.1,8.1,51,0.00,FEW,,0.00,779.0,WeatherDisplay:10.37,2013-09-22 17:34:00,
2013-09-22 12:39:00,74.7,55.9,29.88,SSE,151,2.3,2.3,52,0.00,FEW,,0.00,782.0,WeatherDisplay:10.37,2013-09-22 17:39:00,
2013-09-22 12:44:00,75.0,56.7,29.88,SSE,154,9.0,9.0,53,0.00,FEW,,0.00,784.0,WeatherDisplay:10.37,2013-09-22 17:44:00,
2013-09-22 12:49:00,75.2,55.3,29.88,ESE,109,11.5,11.5,50,0.00,FEW,,0.00,788.0,WeatherDisplay:10.37,2013-09-22 17:49:00,
2013-09-22 12:54:00,75.5,56.6,29.88,East,80,6.9,6.9,52,0.00,FEW,,0.00,793.0,WeatherDisplay:10.37,2013-09-22 17:54:00,
2013-09-22 12:59:00,75.5,55.0,29.88,East,87,5.8,5.8,49,0.00,FEW,,0.00,793.0,WeatherDisplay:10.37,2013-09-22 17:59:00,
2013-09-22 13:04:00,75.5,55.0,29.87,SE,126,3.5,3.5,49,0.00,CLR,,0.00,800.0,WeatherDisplay:10.37,2013-09-22 18:04:00,
2013-09-22 13:09:00,75.5,55.6,29.87,ESE,112,6.9,6.9,50,0.00,CLR,,0.00,800.0,WeatherDisplay:10.37,2013-09-22 18:09:00,
2013-09-22 13:14:00,75.4,54.3,29.87,SE,134,9.2,9.2,48,0.00,CLR,,0.00,800.0,WeatherDisplay:10.37,2013-09-22 18:14:00,
2013-09-22 13:19:00,75.4,54.9,29.87,SSE,156,9.2,9.2,49,0.00,CLR,,0.00,802.0,WeatherDisplay:10.37,2013-09-22 18:19:00,
2013-09-22 13:24:00,75.4,55.5,29.87,SSW,202,4.6,4.6,50,0.00,CLR,,0.00,802.0,WeatherDisplay:10.37,2013-09-22 18:24:00,
2013-09-22 13:29:00,75.6,54.5,29.87,ESE,105,8.1,8.1,48,0.00,CLR,,0.00,167.0,WeatherDisplay:10.37,2013-09-22 18:29:00,
2013-09-22 13:34:00,75.7,55.7,29.86,SSE,154,6.9,6.9,50,0.00,CLR,,0.00,446.0,WeatherDisplay:10.37,2013-09-22 18:34:00,
2013-09-22 13:39:00,75.7,54.0,29.86,SSE,165,9.2,9.2,47,0.00,CLR,,0.00,722.0,WeatherDisplay:10.37,2013-09-22 18:39:00,
2013-09-22 13:44:00,75.9,55.4,29.86,WSW,238,11.5,11.5,49,0.00,CLR,,0.00,141.0,WeatherDisplay:10.37,2013-09-22 18:44:00,
2013-09-22 13:49:00,76.1,55.0,29.86,SE,131,5.8,5.8,48,0.00,CLR,,0.00,65.0,WeatherDisplay:10.37,2013-09-22 18:49:00,
2013-09-22 13:54:00,75.8,53.5,29.85,ESE,117,3.5,3.5,46,0.00,CLR,,0.00,534.0,WeatherDisplay:10.37,2013-09-22 18:54:00,
2013-09-22 13:59:00,75.6,53.9,29.85,ESE,110,9.2,9.2,47,0.00,CLR,,0.00,796.0,WeatherDisplay:10.37,2013-09-22 18:59:00,
2013-09-22 14:04:00,75.6,54.5,29.85,ESE,107,6.9,6.9,48,0.00,FEW,,0.00,795.0,WeatherDisplay:10.37,2013-09-22 19:04:00,
2013-09-22 14:09:00,75.7,54.6,29.84,SSW,207,8.1,8.1,48,0.00,FEW,,0.00,793.0,WeatherDisplay:10.37,2013-09-22 19:09:00,
2013-09-22 14:14:00,75.8,54.7,29.84,SE,139,6.9,6.9,48,0.00,FEW,,0.00,83.0,WeatherDisplay:10.37,2013-09-22 19:14:00,
2013-09-22 14:19:00,75.8,53.5,29.84,ESE,106,4.6,4.6,46,0.00,FEW,,0.00,97.0,WeatherDisplay:10.37,2013-09-22 19:19:00,
2013-09-22 14:24:00,75.8,54.1,29.84,SSE,159,10.0,10.0,47,0.00,FEW,,0.00,74.0,WeatherDisplay:10.37,2013-09-22 19:24:00,
2013-09-22 14:29:00,75.9,54.8,29.84,SE,138,4.6,4.6,48,0.00,FEW,,0.00,79.0,WeatherDisplay:10.37,2013-09-22 19:29:00,
2013-09-22 14:34:00,76.2,53.3,29.84,East,83,6.9,6.9,45,0.00,FEW,,0.00,63.0,WeatherDisplay:10.37,2013-09-22 19:34:00,
2013-09-22 14:40:00,76.2,53.3,29.83,ESE,118,3.0,8.0,45,0.00,FEW,,0.00,248.0,WeatherDisplay:10.37,2013-09-22 19:40:00,
2013-09-22 14:45:00,76.2,52.7,29.83,SSE,150,11.0,11.0,44,0.00,FEW,,0.00,671.0,WeatherDisplay:10.37,2013-09-22 19:45:00,
2013-09-22 14:50:00,76.2,52.7,29.83,SE,128,2.0,12.0,44,0.00,FEW,,0.00,615.0,WeatherDisplay:10.37,2013-09-22 19:50:00,
2013-09-22 14:55:00,76.2,53.3,29.83,ESE,120,3.0,8.0,45,0.00,FEW,,0.00,747.0,WeatherDisplay:10.37,2013-09-22 19:55:00,
2013-09-22 15:00:00,76.5,52.3,29.83,ESE,117,8.1,8.1,43,0.00,FEW,,0.00,744.0,WeatherDisplay:10.37,2013-09-22 20:00:00,
2013-09-22 15:05:00,76.6,53.1,29.83,SE,126,3.5,5.5,44,0.00,FEW,,0.00,735.0,WeatherDisplay:10.37,2013-09-22 20:05:00,
2013-09-22 15:10:00,76.7,53.1,29.83,SW,217,4.0,4.0,44,0.00,FEW,,0.00,728.0,WeatherDisplay:10.37,2013-09-22 20:10:00,
2013-09-22 15:15:00,76.9,53.3,29.82,SE,130,3.0,12.0,44,0.00,FEW,,0.00,719.0,WeatherDisplay:10.37,2013-09-22 20:15:00,
2013-09-22 15:20:00,77.1,52.9,29.82,SE,136,9.2,9.2,43,0.00,FEW,,0.00,712.0,WeatherDisplay:10.37,2013-09-22 20:20:00,
2013-09-22 15:25:00,77.2,51.6,29.82,ESE,122,2.0,10.0,41,0.00,CLR,,0.00,700.0,WeatherDisplay:10.37,2013-09-22 20:25:00,
2013-09-22 15:30:00,77.2,53.0,29.82,ESE,115,2.0,5.0,43,0.00,CLR,,0.00,686.0,WeatherDisplay:10.37,2013-09-22 20:30:00,
2013-09-22 15:35:00,77.4,53.8,29.82,ESE,120,3.5,3.5,44,0.00,CLR,,0.00,675.0,WeatherDisplay:10.37,2013-09-22 20:35:00,
2013-09-22 15:40:00,77.7,53.4,29.82,ESE,122,2.0,9.0,43,0.00,CLR,,0.00,673.0,WeatherDisplay:10.37,2013-09-22 20:40:00,
2013-09-22 15:45:00,78.0,52.4,29.81,ESE,122,3.0,3.0,41,0.00,CLR,,0.00,664.0,WeatherDisplay:10.37,2013-09-22 20:45:00,
2013-09-22 15:50:00,78.1,52.5,29.81,SE,134,5.0,9.0,41,0.00,CLR,,0.00,652.0,WeatherDisplay:10.37,2013-09-22 20:50:00,
2013-09-22 15:55:00,78.1,53.2,29.81,SE,134,2.0,8.0,42,0.00,CLR,,0.00,640.0,WeatherDisplay:10.37,2013-09-22 20:55:00,
2013-09-22 16:00:00,78.5,54.8,29.81,SE,144,1.0,7.0,44,0.00,CLR,,0.00,624.0,WeatherDisplay:10.37,2013-09-22 21:00:00,
2013-09-22 16:05:00,78.7,53.7,29.80,SE,138,1.0,8.0,42,0.00,CLR,,0.00,613.0,WeatherDisplay:10.37,2013-09-22 21:05:00,
2013-09-22 16:10:00,78.7,53.7,29.80,ESE,118,3.0,9.0,42,0.00,CLR,,0.00,612.0,WeatherDisplay:10.37,2013-09-22 21:10:00,
2013-09-22 16:15:00,78.8,54.4,29.80,ESE,122,1.0,7.0,43,0.00,CLR,,0.00,598.0,WeatherDisplay:10.37,2013-09-22 21:15:00,
2013-09-22 16:20:00,78.8,54.4,29.80,SE,127,1.0,9.0,43,0.00,CLR,,0.00,584.0,WeatherDisplay:10.37,2013-09-22 21:20:00,
2013-09-22 16:25:00,78.9,53.8,29.80,SE,144,3.0,7.0,42,0.00,CLR,,0.00,571.0,WeatherDisplay:10.37,2013-09-22 21:25:00,
2013-09-22 16:30:00,79.1,52.7,29.79,ESE,121,3.5,3.5,40,0.00,CLR,,0.00,557.0,WeatherDisplay:10.37,2013-09-22 21:30:00,
2013-09-22 16:35:00,78.9,53.9,29.79,SE,127,1.0,7.0,42,0.00,CLR,,0.00,541.0,WeatherDisplay:10.37,2013-09-22 21:35:00,
2013-09-22 16:40:00,78.8,52.4,29.79,ESE,111,1.0,8.0,40,0.00,CLR,,0.00,527.0,WeatherDisplay:10.37,2013-09-22 21:40:00,
2013-09-22 16:45:00,78.7,51.7,29.79,SE,126,3.5,3.5,39,0.00,CLR,,0.00,517.0,WeatherDisplay:10.37,2013-09-22 21:45:00,
2013-09-22 16:50:00,78.6,52.9,29.79,SSE,156,4.0,4.0,41,0.00,CLR,,0.00,497.0,WeatherDisplay:10.37,2013-09-22 21:50:00,
2013-09-22 16:55:00,78.7,53.7,29.79,SE,136,2.0,7.0,42,0.00,CLR,,0.00,487.0,WeatherDisplay:10.37,2013-09-22 21:55:00,
2013-09-22 17:00:00,78.7,55.6,29.78,SE,130,3.0,12.0,45,0.00,CLR,,0.00,473.0,WeatherDisplay:10.37,2013-09-22 22:00:00,
2013-09-22 17:05:00,78.8,53.8,29.78,SE,132,5.0,8.0,42,0.00,CLR,,0.00,457.0,WeatherDisplay:10.37,2013-09-22 22:05:00,
2013-09-22 17:10:00,78.7,53.0,29.78,East,88,8.1,8.1,41,0.00,CLR,,0.00,439.0,WeatherDisplay:10.37,2013-09-22 22:10:00,
2013-09-22 17:15:00,78.5,52.8,29.78,SSE,155,8.0,8.0,41,0.00,CLR,,0.00,424.0,WeatherDisplay:10.37,2013-09-22 22:15:00,
2013-09-22 17:20:00,78.5,54.1,29.78,ESE,119,3.5,3.9,43,0.00,CLR,,0.00,411.0,WeatherDisplay:10.37,2013-09-22 22:20:00,
2013-09-22 17:25:00,78.4,52.1,29.78,SE,132,2.0,5.0,40,0.00,CLR,,0.00,392.0,WeatherDisplay:10.37,2013-09-22 22:25:00,
2013-09-22 17:30:00,78.2,51.9,29.78,SSE,150,3.0,12.0,40,0.00,CLR,,0.00,374.0,WeatherDisplay:10.37,2013-09-22 22:30:00,
2013-09-22 17:35:00,77.8,52.2,29.78,ESE,111,4.6,4.6,41,0.00,CLR,,0.00,350.0,WeatherDisplay:10.37,2013-09-22 22:35:00,
2013-09-22 17:40:00,77.5,52.6,29.78,SE,138,1.0,7.0,42,0.00,CLR,,0.00,332.0,WeatherDisplay:10.37,2013-09-22 22:40:00,
2013-09-22 17:45:00,77.2,51.7,29.78,SE,124,2.0,5.0,41,0.00,CLR,,0.00,311.0,WeatherDisplay:10.37,2013-09-22 22:45:00,
2013-09-22 17:50:00,76.9,52.1,29.78,SE,138,1.0,7.0,42,0.00,CLR,,0.00,229.0,WeatherDisplay:10.37,2013-09-22 22:50:00,
2013-09-22 17:55:00,76.6,51.1,29.78,SE,132,3.0,9.0,41,0.00,CLR,,0.00,49.0,WeatherDisplay:10.37,2013-09-22 22:55:00,
2013-09-22 18:00:00,76.2,51.4,29.78,SSE,154,5.8,5.8,42,0.00,CLR,,0.00,47.0,WeatherDisplay:10.37,2013-09-22 23:00:00,
2013-09-22 18:05:00,76.0,51.2,29.78,East,101,6.9,6.9,42,0.00,CLR,,0.00,46.0,WeatherDisplay:10.37,2013-09-22 23:05:00,
2013-09-22 18:10:00,75.7,51.0,29.78,SSE,156,5.8,5.8,42,0.00,CLR,,0.00,44.0,WeatherDisplay:10.37,2013-09-22 23:10:00,
2013-09-22 18:15:00,75.5,51.4,29.77,ESE,118,7.0,7.0,43,0.00,CLR,,0.00,42.0,WeatherDisplay:10.37,2013-09-22 23:15:00,
2013-09-22 18:20:00,75.3,51.3,29.78,SE,127,4.6,4.6,43,0.00,CLR,,0.00,40.0,WeatherDisplay:10.37,2013-09-22 23:20:00,
2013-09-22 18:25:00,75.0,51.0,29.78,SE,125,6.9,6.9,43,0.00,CLR,,0.00,40.0,WeatherDisplay:10.37,2013-09-22 23:25:00,
2013-09-22 18:30:00,74.8,51.4,29.77,SE,127,6.9,6.9,44,0.00,CLR,,0.00,40.0,WeatherDisplay:10.37,2013-09-22 23:30:00,
2013-09-22 18:35:00,74.5,51.8,29.77,SE,130,2.0,2.0,45,0.00,CLR,,0.00,39.0,WeatherDisplay:10.37,2013-09-22 23:35:00,
2013-09-22 18:40:00,74.2,51.5,29.78,ESE,119,2.3,2.3,45,0.00,CLR,,0.00,37.0,WeatherDisplay:10.37,2013-09-22 23:40:00,
2013-09-22 18:45:00,73.9,51.2,29.78,SE,135,3.5,3.5,45,0.00,CLR,,0.00,32.0,WeatherDisplay:10.37,2013-09-22 23:45:00,
2013-09-22 18:50:00,73.6,50.3,29.78,ESE,110,6.9,6.9,44,0.00,CLR,,0.00,28.0,WeatherDisplay:10.37,2013-09-22 23:50:00,
2013-09-22 18:55:00,73.3,50.7,29.77,SE,142,3.5,3.5,45,0.00,CLR,,0.00,25.0,WeatherDisplay:10.37,2013-09-22 23:55:00,
2013-09-22 19:00:00,72.9,51.5,29.77,East,97,3.5,3.5,47,0.00,CLR,,0.00,21.0,WeatherDisplay:10.37,2013-09-23 00:00:00,
2013-09-22 19:05:00,72.6,51.2,29.77,SE,137,3.5,3.5,47,0.00,CLR,,0.00,18.0,WeatherDisplay:10.37,2013-09-23 00:05:00,
2013-09-22 19:10:00,72.3,51.5,29.77,SE,138,2.3,2.3,48,0.00,CLR,,0.00,14.0,WeatherDisplay:10.37,2013-09-23 00:10:00,
2013-09-22 19:15:00,72.0,51.8,29.77,SE,128,1.0,5.0,49,0.00,CLR,,0.00,11.0,WeatherDisplay:10.37,2013-09-23 00:15:00,
2013-09-22 19:20:00,71.6,52.0,29.77,SSW,196,3.5,3.5,50,0.00,CLR,,0.00,7.0,WeatherDisplay:10.37,2013-09-23 00:20:00,
2013-09-22 19:25:00,71.3,52.2,29.77,SSE,165,3.5,3.5,51,0.00,CLR,,0.00,5.0,WeatherDisplay:10.37,2013-09-23 00:25:00,
2013-09-22 19:30:00,71.0,52.0,29.77,SE,125,1.2,1.5,51,0.00,CLR,,0.00,0.0,WeatherDisplay:10.37,2013-09-23 00:30:00,
2013-09-22 19:35:00,70.7,52.2,29.78,SE,146,1.2,1.2,52,0.00,CLR,,0.00,0.0,WeatherDisplay:10.37,2013-09-23 00:35:00,
2013-09-22 19:40:00,70.3,52.4,29.78,SSE,148,3.5,3.5,53,0.00,CLR,,0.00,0.0,WeatherDisplay:10.37,2013-09-23 00:40:00,
2013-09-22 19:45:00,70.0,51.6,29.78,SE,140,1.2,1.2,52,0.00,CLR,,0.00,0.0,WeatherDisplay:10.37,2013-09-23 00:45:00,
2013-09-22 19:50:00,69.7,51.8,29.78,SE,141,2.3,2.3,53,0.00,CLR,,0.00,0.0,WeatherDisplay:10.37,2013-09-23 00:50:00,
2013-09-22 19:55:00,69.4,51.5,29.78,ESE,103,1.2,1.2,53,0.00,CLR,,0.00,0.0,WeatherDisplay:10.37,2013-09-23 00:55:00,
2013-09-22 20:00:00,69.1,51.2,29.78,ESE,108,0.0,3.0,53,0.00,CLR,,0.00,0.0,WeatherDisplay:10.37,2013-09-23 01:00:00,
2013-09-22 20:05:00,68.8,51.5,29.78,SE,135,2.3,2.3,54,0.00,CLR,,0.00,0.0,WeatherDisplay:10.37,2013-09-23 01:05:00,
2013-09-22 20:10:00,68.6,51.3,29.78,SSE,148,1.2,1.2,54,0.00,CLR,,0.00,0.0,WeatherDisplay:10.37,2013-09-23 01:10:00,
2013-09-22 20:15:00,68.4,51.6,29.78,South,186,0.0,0.1,55,0.00,CLR,,0.00,0.0,WeatherDisplay:10.37,2013-09-23 01:15:00,
2013-09-22 20:20:00,68.2,51.9,29.78,South,186,0.0,0.1,56,0.00,CLR,,0.00,0.0,WeatherDisplay:10.37,2013-09-23 01:20:00,
2013-09-22 20:25:00,67.8,51.5,29.78,SE,138,1.2,1.2,56,0.00,CLR,,0.00,0.0,WeatherDisplay:10.37,2013-09-23 01:25:00,
2013-09-22 20:30:00,67.6,51.3,29.78,East,84,7.0,7.0,56,0.00,CLR,,0.00,0.0,WeatherDisplay:10.37,2013-09-23 01:30:00,
2013-09-22 20:35:00,67.5,51.2,29.78,East,84,1.2,1.2,56,0.00,CLR,,0.00,0.0,WeatherDisplay:10.37,2013-09-23 01:35:00,
2013-09-22 20:40:00,67.5,51.2,29.78,East,84,1.2,1.2,56,0.00,CLR,,0.00,0.0,WeatherDisplay:10.37,2013-09-23 01:40:00,
2013-09-22 20:45:00,67.4,51.2,29.78,SE,143,2.3,2.3,56,0.00,CLR,,0.00,0.0,WeatherDisplay:10.37,2013-09-23 01:45:00,
2013-09-22 20:50:00,67.3,51.1,29.78,ESE,121,1.2,1.2,56,0.00,CLR,,0.00,0.0,WeatherDisplay:10.37,2013-09-23 01:50:00,
2013-09-22 20:55:00,67.1,50.9,29.78,ESE,121,1.2,1.2,56,0.00,CLR,,0.00,0.0,WeatherDisplay:10.37,2013-09-23 01:55:00,
2013-09-22 21:00:00,66.9,50.7,29.78,ESE,122,0.0,2.0,56,0.00,CLR,,0.00,0.0,WeatherDisplay:10.37,2013-09-23 02:00:00,
2013-09-22 21:05:00,66.7,50.5,29.78,SE,125,0.0,3.0,56,0.00,CLR,,0.00,0.0,WeatherDisplay:10.37,2013-09-23 02:05:00,
2013-09-22 21:10:00,66.5,50.8,29.78,SE,130,1.2,1.3,57,0.00,CLR,,0.00,0.0,WeatherDisplay:10.37,2013-09-23 02:10:00,
2013-09-22 21:15:00,66.4,51.2,29.78,South,175,1.2,1.2,58,0.00,CLR,,0.00,0.0,WeatherDisplay:10.37,2013-09-23 02:15:00,
2013-09-22 21:20:00,66.2,51.0,29.78,East,93,3.0,3.0,58,0.00,CLR,,0.00,0.0,WeatherDisplay:10.37,2013-09-23 02:20:00,
2013-09-22 21:25:00,66.1,51.4,29.78,SE,125,2.3,2.3,59,0.00,CLR,,0.00,0.0,WeatherDisplay:10.37,2013-09-23 02:25:00,
2013-09-22 21:30:00,65.9,51.2,29.78,SE,126,3.5,3.5,59,0.00,CLR,,0.00,0.0,WeatherDisplay:10.37,2013-09-23 02:30:00,
2013-09-22 21:35:00,65.8,51.1,29.78,ESE,123,3.5,3.5,59,0.00,CLR,,0.00,0.0,WeatherDisplay:10.37,2013-09-23 02:35:00,
2013-09-22 21:40:00,65.7,51.4,29.78,SE,128,1.0,4.0,60,0.00,CLR,,0.00,0.0,WeatherDisplay:10.37,2013-09-23 02:40:00,
2013-09-22 21:45:00,65.6,51.3,29.78,SSE,167,3.5,3.5,60,0.00,CLR,,0.00,0.0,WeatherDisplay:10.37,2013-09-23 02:45:00,
2013-09-22 21:50:00,65.5,51.2,29.78,SE,142,4.0,4.0,60,0.00,CLR,,0.00,0.0,WeatherDisplay:10.37,2013-09-23 02:50:00,
2013-09-22 21:55:00,65.3,51.1,29.78,ESE,121,1.0,8.0,60,0.00,CLR,,0.00,0.0,WeatherDisplay:10.37,2013-09-23 02:55:00,
2013-09-22 22:00:00,65.1,51.3,29.78,SSE,155,3.0,3.0,61,0.00,CLR,,0.00,0.0,WeatherDisplay:10.37,2013-09-23 03:00:00,
2013-09-22 22:05:00,64.9,51.1,29.78,ESE,118,2.3,2.3,61,0.00,CLR,,0.00,0.0,WeatherDisplay:10.37,2013-09-23 03:05:00,
2013-09-22 22:10:00,64.8,51.5,29.78,SE,136,2.3,2.6,62,0.00,CLR,,0.00,0.0,WeatherDisplay:10.37,2013-09-23 03:10:00,
2013-09-22 22:15:00,64.7,51.4,29.78,SE,127,1.0,6.0,62,0.00,CLR,,0.00,0.0,WeatherDisplay:10.37,2013-09-23 03:15:00,
2013-09-22 22:20:00,64.5,51.2,29.78,SSE,162,2.0,2.0,62,0.00,CLR,,0.00,0.0,WeatherDisplay:10.37,2013-09-23 03:20:00,
2013-09-22 22:25:00,64.4,51.1,29.78,SSE,157,1.0,4.0,62,0.00,CLR,,0.00,0.0,WeatherDisplay:10.37,2013-09-23 03:25:00,
2013-09-22 22:30:00,64.3,51.4,29.78,SE,136,2.0,5.0,63,0.00,CLR,,0.00,0.0,WeatherDisplay:10.37,2013-09-23 03:30:00,
2013-09-22 22:35:00,64.1,51.7,29.78,ESE,119,1.0,4.0,64,0.00,CLR,,0.00,0.0,WeatherDisplay:10.37,2013-09-23 03:35:00,
2013-09-22 22:40:00,64.0,51.6,29.78,SE,135,4.0,4.0,64,0.00,CLR,,0.00,0.0,WeatherDisplay:10.37,2013-09-23 03:40:00,
2013-09-22 22:45:00,63.8,51.4,29.78,ESE,121,1.0,7.0,64,0.00,CLR,,0.00,0.0,WeatherDisplay:10.37,2013-09-23 03:45:00,
2013-09-22 22:50:00,63.8,51.4,29.78,East,99,3.5,3.5,64,0.00,CLR,,0.00,0.0,WeatherDisplay:10.37,2013-09-23 03:50:00,
2013-09-22 22:55:00,63.7,51.3,29.78,ESE,104,3.5,3.5,64,0.00,CLR,,0.00,0.0,WeatherDisplay:10.37,2013-09-23 03:55:00,
2013-09-22 23:00:00,63.6,51.2,29.78,ESE,123,2.0,5.0,64,0.00,CLR,,0.00,0.0,WeatherDisplay:10.37,2013-09-23 04:00:00,
2013-09-22 23:01:00,63.6,51.6,29.78,SE,130,4.0,4.0,65,0.00,CLR,,0.00,0.0,WeatherDisplay:10.37,2013-09-23 04:01:00,
2013-09-22 23:06:00,63.5,51.5,29.78,SE,130,3.5,3.5,65,0.00,CLR,,0.00,0.0,WeatherDisplay:10.37,2013-09-23 04:06:00,
2013-09-22 23:11:00,63.4,51.4,29.78,South,170,6.9,6.9,65,0.00,FEW,,0.00,0.0,WeatherDisplay:10.37,2013-09-23 04:11:00,
2013-09-22 23:16:00,63.4,51.4,29.78,SSE,165,3.5,3.5,65,0.00,FEW,,0.00,0.0,WeatherDisplay:10.37,2013-09-23 04:16:00,
2013-09-22 23:21:00,63.3,51.3,29.78,SE,144,2.3,2.3,65,0.00,FEW,,0.00,0.0,WeatherDisplay:10.37,2013-09-23 04:21:00,
2013-09-22 23:26:00,63.2,51.2,29.78,SE,131,2.3,2.6,65,0.00,FEW,,0.00,0.0,WeatherDisplay:10.37,2013-09-23 04:26:00,
2013-09-22 23:31:00,63.1,51.1,29.78,SE,125,4.6,4.6,65,0.00,FEW,,0.00,0.0,WeatherDisplay:10.37,2013-09-23 04:31:00,
2013-09-22 23:36:00,63.0,51.0,29.78,East,82,5.8,5.8,65,0.00,FEW,,0.00,0.0,WeatherDisplay:10.37,2013-09-23 04:36:00,
2013-09-22 23:41:00,63.0,51.0,29.78,ESE,115,4.6,4.6,65,0.00,FEW,,0.00,0.0,WeatherDisplay:10.37,2013-09-23 04:41:00,
2013-09-22 23:46:00,62.9,51.0,29.78,SE,140,5.8,5.8,65,0.00,FEW,,0.00,0.0,WeatherDisplay:10.37,2013-09-23 04:46:00,
2013-09-22 23:51:00,62.9,51.4,29.78,East,101,2.3,2.3,66,0.00,FEW,,0.00,0.0,WeatherDisplay:10.37,2013-09-23 04:51:00,
2013-09-22 23:56:00,62.7,50.8,29.78,South,190,9.0,9.0,65,0.00,FEW,,0.00,0.0,WeatherDisplay:10.37,2013-09-23 04:56:00,